Pagina principale
METAR-TAF:

METAR-TAF

Aeroporti :

Tarvisio, Italia

latitudine: 46-30N, longitudine: 013-35E, altezza: 777 m

Osservazione

Il bollettino è stato emesso 44 minuti fa, alle 12:55 UTC
Vento calmo
Temperature 6°C
Umidità 93%
Pressione 1012 hPa
Visibilità: 5000 m
Nuvoloso ad un'altezza di 500 ft
Nubi sparse ad un'altezza di 2000 ft
pioggia, foschia

METAR: LIVO 191255Z 00000KT 5000 RA BR BKN005 SCT020 06/05 Q1012 RMK OVC VIS MIN 5000

Ora: 15:39 (13:39 UTC)


TAF: mancante

Osservazioni e previsioni meteorologiche di più di 4000 aeroporti (messaggi METAR e TAF).

Le stazioni disponibili sono rappresentate dai dischi gialli e rossi sulla carta.

Puntare il mouse per vedere il nome della stazione.

Clicca sopra per visualizzare le osservazioni e previsioni meteorologiche.

Per cambiare la mappa : fare clic sui pulsanti verdi con una croce nera per ingrandire, il pulsante verde con un trattino per diminuire, o sulla freccia verde per le mappe adiacenti.


METAR-TAF: